Time;durP1;ratioP1;P1;durP2;ratioP2;P2;SDS_P1;SDS_P2;PMS_P1;PMS_P2;Temp;Humidity;BMP_temperature;BMP_pressure;BME280_temperature;BME280_humidity;BME280_pressure;Samples;Min_cycle;Max_cycle;Signal;HPM_P1;HPM_P2
2021/10/06 00:00:30;;;;;;;61.42;32.88;;;;;;;15.29;81.52;100330.00;1730440;81;25850;-62
2021/10/06 00:02:56;;;;;;;48.95;29.45;;;;;;;15.24;81.50;100325.78;1732465;81;26383;-62
2021/10/06 00:05:22;;;;;;;55.63;30.68;;;;;;;15.23;81.39;100320.48;1736176;81;25775;-62
2021/10/06 00:07:48;;;;;;;60.80;33.15;;;;;;;15.19;81.38;100318.97;1740844;81;27499;-62
2021/10/06 00:10:14;;;;;;;58.00;32.30;;;;;;;15.15;81.46;100310.69;1729867;81;25924;-62
2021/10/06 00:12:41;;;;;;;68.33;34.92;;;;;;;15.12;81.47;100311.77;1720490;81;25719;-62
2021/10/06 00:15:10;;;;;;;65.20;33.70;;;;;;;15.08;81.48;100300.79;1731123;81;27529;-62
2021/10/06 00:17:36;;;;;;;64.22;32.45;;;;;;;15.06;81.55;100281.13;1730980;81;25731;-62
2021/10/06 00:20:04;;;;;;;58.92;31.23;;;;;;;15.04;81.59;100280.38;1710177;81;27521;-62
2021/10/06 00:22:30;;;;;;;69.37;33.18;;;;;;;15.04;81.70;100293.00;1712988;82;25832;-62
2021/10/06 00:24:56;;;;;;;66.87;32.13;;;;;;;15.04;81.62;100301.96;1715399;81;26221;-62
2021/10/06 00:27:22;;;;;;;49.85;27.37;;;;;;;15.02;81.57;100304.39;1690282;83;26050;-63
2021/10/06 00:29:48;;;;;;;55.88;29.37;;;;;;;14.94;81.69;100300.84;1721959;81;25818;-62
2021/10/06 00:32:14;;;;;;;50.83;26.00;;;;;;;14.83;81.91;100300.21;1696117;83;27497;-63
2021/10/06 00:34:39;;;;;;;55.48;25.90;;;;;;;14.75;82.07;100319.23;1677375;83;25914;-62
2021/10/06 00:37:05;;;;;;;53.95;27.25;;;;;;;14.61;82.03;100307.98;1711596;81;25773;-62
2021/10/06 00:39:31;;;;;;;44.50;22.82;;;;;;;14.56;82.09;100316.86;1687718;83;25967;-63
2021/10/06 00:41:57;;;;;;;50.15;25.92;;;;;;;14.49;82.08;100326.31;1713443;81;25806;-65
2021/10/06 00:44:24;;;;;;;49.65;24.40;;;;;;;14.42;82.17;100342.51;1715861;81;26786;-63
2021/10/06 00:46:51;;;;;;;42.20;22.95;;;;;;;14.36;82.28;100346.42;1716325;81;26130;-63
2021/10/06 00:49:18;;;;;;;43.33;23.18;;;;;;;14.31;82.35;100353.94;1725691;80;25808;-63
2021/10/06 00:51:43;;;;;;;38.85;21.73;;;;;;;14.24;82.36;100360.68;1714530;81;26721;-65
2021/10/06 00:54:10;;;;;;;43.30;23.10;;;;;;;14.19;82.51;100362.80;1713174;81;25821;-65
2021/10/06 00:56:36;;;;;;;38.53;22.25;;;;;;;14.17;82.58;100362.03;1711191;81;29529;-63
2021/10/06 00:59:03;;;;;;;43.68;22.77;;;;;;;14.17;82.62;100374.16;1715304;81;26452;-63
2021/10/06 01:01:29;;;;;;;42.48;21.68;;;;;;;14.13;82.70;100371.27;1714456;81;26319;-63
2021/10/06 01:03:55;;;;;;;47.17;24.55;;;;;;;14.10;82.76;100377.72;1713728;81;26055;-63
2021/10/06 01:06:21;;;;;;;36.90;22.13;;;;;;;14.07;82.94;100382.44;1712865;81;25874;-66
2021/10/06 01:08:47;;;;;;;40.23;22.05;;;;;;;14.03;83.04;100391.67;1714726;81;27384;-63
2021/10/06 01:11:15;;;;;;;41.13;23.22;;;;;;;13.98;83.17;100384.73;1719141;81;25712;-63
2021/10/06 01:13:41;;;;;;;41.53;21.97;;;;;;;13.98;83.24;100381.17;1722088;81;25708;-63
2021/10/06 01:16:07;;;;;;;44.10;24.72;;;;;;;13.93;83.32;100378.76;1722377;81;26041;-63
2021/10/06 01:18:33;;;;;;;34.83;22.52;;;;;;;13.92;83.41;100396.37;1721334;81;25291;-63
2021/10/06 01:21:13;;;;;;;32.95;21.25;;;;;;;13.90;83.46;100405.89;1736605;81;27430;-63
2021/10/06 01:23:39;;;;;;;30.95;21.40;;;;;;;13.84;83.50;100408.09;1709949;81;25787;-63
2021/10/06 01:26:06;;;;;;;31.12;21.07;;;;;;;13.74;83.47;100415.86;1724908;81;25761;-64
2021/10/06 01:28:32;;;;;;;26.60;20.02;;;;;;;13.66;83.63;100418.14;1713975;81;26032;-63
2021/10/06 01:30:58;;;;;;;26.37;18.35;;;;;;;13.59;83.69;100417.64;1727886;81;25660;-63
2021/10/06 01:33:24;;;;;;;27.73;15.40;;;;;;;13.56;83.74;100415.61;1733715;81;27519;-63
2021/10/06 01:35:50;;;;;;;16.77;11.18;;;;;;;13.52;83.76;100408.67;1721301;81;25878;-63
2021/10/06 01:38:20;;;;;;;18.07;10.45;;;;;;;13.46;83.66;100409.90;1730402;81;25307;-63
2021/10/06 01:40:46;;;;;;;14.40;9.93;;;;;;;13.38;83.81;100403.23;1718597;81;26065;-63
2021/10/06 01:43:12;;;;;;;12.30;8.80;;;;;;;13.29;83.88;100414.05;1719340;81;25961;-63
2021/10/06 01:45:42;;;;;;;13.53;8.75;;;;;;;13.25;83.87;100412.50;1719605;81;27353;-63
2021/10/06 01:48:12;;;;;;;10.28;7.53;;;;;;;13.21;83.87;100415.84;1724516;81;25829;-63
2021/10/06 01:50:41;;;;;;;10.90;7.37;;;;;;;13.19;83.91;100404.30;1720915;81;25813;-64
2021/10/06 01:53:09;;;;;;;11.00;7.12;;;;;;;13.16;83.94;100408.52;1714366;81;26058;-64
2021/10/06 01:55:36;;;;;;;9.58;7.25;;;;;;;13.12;83.99;100412.30;1732548;81;25844;-64
2021/10/06 01:58:06;;;;;;;10.18;6.75;;;;;;;13.06;84.12;100401.03;1725311;81;27404;-64
2021/10/06 02:00:33;;;;;;;12.13;8.33;;;;;;;12.97;84.26;100406.02;1716244;81;25779;-64
2021/10/06 02:03:00;;;;;;;8.75;7.03;;;;;;;12.94;84.33;100394.56;1736141;81;26416;-65
2021/10/06 02:05:26;;;;;;;12.05;8.05;;;;;;;12.91;84.40;100386.66;1693939;82;26027;-65
2021/10/06 02:07:53;;;;;;;11.63;8.23;;;;;;;12.88;84.33;100386.84;1698561;82;26329;-65
2021/10/06 02:10:20;;;;;;;11.80;7.30;;;;;;;12.87;84.31;100390.48;1708190;82;28078;-65
2021/10/06 02:12:47;;;;;;;12.00;8.58;;;;;;;12.86;84.29;100388.75;1683101;82;25827;-65
2021/10/06 02:15:13;;;;;;;12.10;8.23;;;;;;;12.82;84.29;100397.47;1713561;81;25836;-65
2021/10/06 02:17:38;;;;;;;13.88;9.15;;;;;;;12.80;84.33;100404.75;1717432;81;26099;-65
2021/10/06 02:20:06;;;;;;;12.88;8.85;;;;;;;12.79;84.33;100412.91;1713087;81;26371;-66
2021/10/06 02:22:32;;;;;;;12.90;9.35;;;;;;;12.79;84.35;100408.40;1755024;80;27432;-66
2021/10/06 02:24:58;;;;;;;10.48;8.58;;;;;;;12.80;84.27;100410.61;1759958;80;25771;-66
2021/10/06 02:27:23;;;;;;;12.33;9.05;;;;;;;12.81;84.28;100423.11;1752252;80;25706;-67
2021/10/06 02:29:49;;;;;;;12.65;9.43;;;;;;;12.77;84.25;100420.20;1766403;80;26028;-66
2021/10/06 02:32:15;;;;;;;14.43;9.75;;;;;;;12.79;84.32;100420.98;1756012;80;25746;-67
2021/10/06 02:34:41;;;;;;;14.87;9.75;;;;;;;12.82;84.37;100419.46;1768770;80;29595;-67
2021/10/06 02:37:07;;;;;;;12.75;8.63;;;;;;;12.83;84.22;100405.92;1754120;80;27203;-67
2021/10/06 02:39:32;;;;;;;13.90;9.45;;;;;;;12.83;84.18;100409.09;1753945;80;25841;-67
2021/10/06 02:41:58;;;;;;;12.85;9.75;;;;;;;12.80;84.10;100413.30;1755960;80;26042;-66
2021/10/06 02:44:24;;;;;;;15.95;10.43;;;;;;;12.78;84.09;100424.14;1759847;80;25745;-66
2021/10/06 02:46:50;;;;;;;13.45;10.20;;;;;;;12.79;84.19;100425.02;1766808;80;27555;-66
2021/10/06 02:49:16;;;;;;;15.23;10.28;;;;;;;12.81;84.22;100424.45;1762282;80;25729;-66
2021/10/06 02:51:41;;;;;;;16.12;9.48;;;;;;;12.84;84.21;100433.22;1761928;80;25917;-66
2021/10/06 02:54:07;;;;;;;23.47;16.40;;;;;;;12.85;84.18;100430.05;1752927;80;25980;-66
2021/10/06 02:56:33;;;;;;;24.47;17.55;;;;;;;12.87;84.21;100439.77;1758210;80;25734;-66
2021/10/06 02:58:59;;;;;;;20.17;14.73;;;;;;;12.87;84.16;100433.05;1756242;80;27384;-66
2021/10/06 03:01:25;;;;;;;22.82;14.23;;;;;;;12.89;84.17;100445.93;1777508;80;26608;-66
2021/10/06 03:03:51;;;;;;;20.10;14.58;;;;;;;12.92;84.15;100451.62;1761205;80;26329;-66
2021/10/06 03:06:17;;;;;;;21.20;13.72;;;;;;;12.91;84.10;100452.57;1765133;80;26543;-65
2021/10/06 03:08:42;;;;;;;22.77;14.75;;;;;;;12.91;84.11;100447.19;1756507;80;25815;-65
2021/10/06 03:11:08;;;;;;;23.92;15.58;;;;;;;12.91;84.07;100448.53;1757203;80;28268;-66
2021/10/06 03:13:35;;;;;;;23.98;14.90;;;;;;;12.90;84.13;100454.88;1755084;80;26616;-65
2021/10/06 03:16:01;;;;;;;27.67;14.70;;;;;;;12.91;84.13;100455.27;1755916;80;25686;-65
2021/10/06 03:18:27;;;;;;;26.60;13.95;;;;;;;12.90;84.12;100453.52;1768292;80;26151;-65
2021/10/06 03:20:53;;;;;;;20.27;13.72;;;;;;;12.89;84.15;100453.13;1757056;80;25767;-65
2021/10/06 03:23:21;;;;;;;22.00;13.78;;;;;;;12.89;84.25;100461.20;1749833;80;27990;-65
2021/10/06 03:25:47;;;;;;;21.02;13.35;;;;;;;12.91;84.31;100469.58;1763545;79;25722;-65
2021/10/06 03:28:13;;;;;;;23.62;14.35;;;;;;;12.92;84.31;100463.72;1752858;80;25781;-65
2021/10/06 03:30:39;;;;;;;20.80;12.93;;;;;;;12.93;84.21;100462.77;1753860;80;26622;-65
2021/10/06 03:33:06;;;;;;;21.20;14.58;;;;;;;12.93;84.28;100465.45;1753739;80;25771;-65
2021/10/06 03:35:32;;;;;;;19.50;13.10;;;;;;;12.91;84.25;100468.23;1751018;80;27427;-65
2021/10/06 03:37:58;;;;;;;24.12;14.73;;;;;;;12.93;84.29;100472.19;1762235;80;25693;-65
2021/10/06 03:40:24;;;;;;;18.48;13.13;;;;;;;12.94;84.26;100480.64;1761461;80;25790;-65
2021/10/06 03:42:50;;;;;;;19.23;12.73;;;;;;;12.97;84.37;100485.86;1755528;79;26001;-65
2021/10/06 03:45:16;;;;;;;21.17;13.18;;;;;;;13.01;84.36;100480.66;1763028;80;25848;-65
2021/10/06 03:47:43;;;;;;;23.65;13.15;;;;;;;13.03;84.35;100485.48;1752760;80;27351;-65
2021/10/06 03:50:15;;;;;;;22.62;13.40;;;;;;;13.05;84.36;100488.95;1753437;80;25795;-65
2021/10/06 03:52:41;;;;;;;19.80;13.48;;;;;;;13.07;84.37;100485.70;1751013;80;25980;-65
2021/10/06 03:55:09;;;;;;;21.73;13.88;;;;;;;13.09;84.39;100482.45;1759780;80;26580;-65
2021/10/06 03:57:36;;;;;;;22.90;14.35;;;;;;;13.09;84.42;100482.45;1756027;80;26563;-65
2021/10/06 04:00:05;;;;;;;25.65;15.20;;;;;;;13.11;84.37;100481.88;1762949;80;27465;-65
2021/10/06 04:02:31;;;;;;;21.57;14.18;;;;;;;13.12;84.32;100484.97;1753876;79;26149;-65
2021/10/06 04:04:57;;;;;;;27.50;15.58;;;;;;;13.12;84.43;100494.86;1762587;80;26275;-66
2021/10/06 04:07:23;;;;;;;21.12;14.25;;;;;;;13.12;84.45;100498.42;1751332;80;26021;-65
2021/10/06 04:09:49;;;;;;;30.27;16.12;;;;;;;13.13;84.47;100494.77;1759732;80;25919;-65
2021/10/06 04:12:14;;;;;;;24.18;14.80;;;;;;;13.15;84.46;100490.65;1751907;80;27515;-65
2021/10/06 04:14:41;;;;;;;28.90;14.55;;;;;;;13.13;84.44;100500.16;1763764;80;26406;-65
2021/10/06 04:17:08;;;;;;;28.40;15.75;;;;;;;13.14;84.42;100504.58;1750172;80;25746;-66
2021/10/06 04:19:33;;;;;;;24.75;15.53;;;;;;;13.15;84.44;100498.73;1764179;80;26298;-66
2021/10/06 04:21:59;;;;;;;27.37;17.15;;;;;;;13.13;84.45;100489.39;1750527;80;26379;-65
2021/10/06 04:24:25;;;;;;;26.37;16.10;;;;;;;13.16;84.50;100497.77;1752862;80;28137;-65
2021/10/06 04:26:51;;;;;;;26.57;16.27;;;;;;;13.16;84.46;100504.50;1759690;80;25779;-65
2021/10/06 04:29:17;;;;;;;26.42;15.95;;;;;;;13.16;84.47;100508.09;1763278;80;25817;-65
2021/10/06 04:31:43;;;;;;;29.98;15.85;;;;;;;13.17;84.54;100508.95;1776187;80;26081;-65
2021/10/06 04:34:08;;;;;;;25.43;16.30;;;;;;;13.20;84.60;100516.86;1759011;80;25763;-65
2021/10/06 04:36:34;;;;;;;28.95;16.60;;;;;;;13.21;84.53;100519.95;1760081;80;27398;-66
2021/10/06 04:39:00;;;;;;;30.35;18.02;;;;;;;13.21;84.52;100523.50;1748807;80;26061;-65
2021/10/06 04:41:26;;;;;;;34.03;19.40;;;;;;;13.21;84.53;100527.54;1766254;80;26571;-65
2021/10/06 04:43:52;;;;;;;29.90;17.98;;;;;;;13.21;84.60;100528.89;1756636;80;26615;-65
2021/10/06 04:46:19;;;;;;;32.28;18.37;;;;;;;13.23;84.52;100532.84;1754053;80;25712;-65
2021/10/06 04:48:47;;;;;;;38.83;19.80;;;;;;;13.23;84.65;100535.53;1750593;80;27382;-65
2021/10/06 04:51:14;;;;;;;28.83;18.27;;;;;;;13.24;84.67;100539.48;1755862;80;25759;-65
2021/10/06 04:53:40;;;;;;;33.42;18.55;;;;;;;13.27;84.73;100535.27;1760770;80;25682;-65
2021/10/06 04:56:07;;;;;;;24.63;16.52;;;;;;;13.30;84.71;100544.52;1751512;80;26678;-65
2021/10/06 04:58:32;;;;;;;25.85;16.23;;;;;;;13.32;84.70;100556.55;1756306;80;25824;-65
2021/10/06 05:00:58;;;;;;;26.52;15.18;;;;;;;13.33;84.75;100561.84;1753573;80;27387;-65
2021/10/06 05:03:24;;;;;;;26.85;16.77;;;;;;;13.35;84.71;100560.89;1755623;80;25816;-65
2021/10/06 05:05:50;;;;;;;30.62;17.15;;;;;;;13.35;84.76;100560.89;1760579;80;25972;-65
2021/10/06 05:08:16;;;;;;;24.55;15.88;;;;;;;13.34;84.80;100555.98;1755119;80;26010;-65
2021/10/06 05:10:42;;;;;;;28.55;16.40;;;;;;;13.35;84.77;100558.20;1757089;80;25683;-65
2021/10/06 05:13:08;;;;;;;28.62;17.12;;;;;;;13.35;84.79;100563.11;1752339;80;27826;-65
2021/10/06 05:15:35;;;;;;;28.40;16.32;;;;;;;13.37;84.78;100567.06;1748550;80;25851;-65
2021/10/06 05:18:00;;;;;;;28.00;18.12;;;;;;;13.37;84.74;100564.37;1761336;80;25795;-65
2021/10/06 05:20:26;;;;;;;31.75;17.17;;;;;;;13.35;84.79;100571.66;1752656;79;26525;-65
2021/10/06 05:22:52;;;;;;;31.23;18.87;;;;;;;13.36;84.86;100576.09;1776704;79;25857;-64
2021/10/06 05:25:20;;;;;;;32.13;19.27;;;;;;;13.37;84.94;100591.29;1772071;79;28141;-65
2021/10/06 05:27:47;;;;;;;30.65;18.20;;;;;;;13.38;84.92;100600.63;1770988;79;25751;-65
2021/10/06 05:30:13;;;;;;;33.40;18.62;;;;;;;13.38;84.86;100591.68;1753737;79;25885;-65
2021/10/06 05:32:40;;;;;;;32.30;19.35;;;;;;;13.36;84.83;100597.63;1768284;79;25990;-64
2021/10/06 05:35:07;;;;;;;34.08;19.57;;;;;;;13.36;84.92;100600.32;1768094;79;26567;-64
2021/10/06 05:37:33;;;;;;;28.38;17.82;;;;;;;13.35;84.93;100598.58;1784128;79;27506;-64
2021/10/06 05:39:59;;;;;;;39.20;20.57;;;;;;;13.35;84.93;100597.23;1770613;79;25854;-64
2021/10/06 05:42:25;;;;;;;29.67;19.37;;;;;;;13.36;85.00;100603.02;1766795;79;26358;-64
2021/10/06 05:44:51;;;;;;;30.48;18.75;;;;;;;13.37;85.00;100596.67;1760281;79;26559;-64
2021/10/06 05:47:17;;;;;;;31.05;19.25;;;;;;;13.36;84.97;100609.27;1776574;79;25701;-65
2021/10/06 05:49:43;;;;;;;36.17;19.85;;;;;;;13.36;85.04;100607.92;1767928;79;27377;-65
2021/10/06 05:52:09;;;;;;;30.10;19.05;;;;;;;13.37;85.05;100616.39;1767553;79;25737;-65
2021/10/06 05:54:35;;;;;;;36.10;20.00;;;;;;;13.36;85.01;100616.00;1764943;79;26390;-65
2021/10/06 05:57:01;;;;;;;39.83;22.77;;;;;;;13.36;85.08;100621.38;1762660;80;28269;-65
2021/10/06 05:59:27;;;;;;;37.05;21.00;;;;;;;13.34;85.00;100623.29;1757106;79;25908;-64
2021/10/06 06:01:53;;;;;;;31.42;19.27;;;;;;;13.34;85.11;100630.02;1772836;80;29465;-64
2021/10/06 06:04:19;;;;;;;32.60;19.12;;;;;;;13.33;85.03;100637.23;1774621;80;26742;-64
2021/10/06 06:06:45;;;;;;;32.50;19.23;;;;;;;13.30;84.99;100637.87;1759618;79;25822;-64
2021/10/06 06:09:12;;;;;;;36.45;19.95;;;;;;;13.29;85.14;100638.34;1766861;79;26028;-65
2021/10/06 06:11:39;;;;;;;29.92;19.48;;;;;;;13.29;85.15;100646.89;1762826;80;25749;-65
2021/10/06 06:14:06;;;;;;;31.68;19.92;;;;;;;13.30;85.16;100657.58;1762580;79;27441;-65
2021/10/06 06:16:32;;;;;;;37.05;20.12;;;;;;;13.29;85.24;100650.45;1761529;79;25727;-65
2021/10/06 06:18:58;;;;;;;37.25;21.90;;;;;;;13.33;85.20;100656.55;1763900;79;25787;-64
2021/10/06 06:21:24;;;;;;;36.48;21.75;;;;;;;13.30;85.16;100660.27;1766485;79;28131;-64
2021/10/06 06:23:50;;;;;;;35.03;21.35;;;;;;;13.29;85.19;100659.88;1764693;79;25816;-65
2021/10/06 06:26:16;;;;;;;48.33;22.27;;;;;;;13.30;85.28;100660.75;1763854;79;29560;-65
2021/10/06 06:28:42;;;;;;;42.20;23.45;;;;;;;13.29;85.27;100663.05;1762398;79;25898;-66
2021/10/06 06:31:10;;;;;;;41.75;22.98;;;;;;;13.28;85.29;100679.67;1763165;79;26451;-66
2021/10/06 06:33:36;;;;;;;36.75;22.10;;;;;;;13.29;85.32;100682.77;1767318;79;26601;-66
2021/10/06 06:36:06;;;;;;;44.58;21.70;;;;;;;13.29;85.33;100677.37;1778268;79;25785;-66
2021/10/06 06:38:32;;;;;;;37.63;22.02;;;;;;;13.32;85.44;100669.61;1779806;79;27423;-65
2021/10/06 06:40:58;;;;;;;55.43;29.55;;;;;;;13.34;85.37;100671.74;1778959;79;25814;-65
2021/10/06 06:43:24;;;;;;;51.55;25.62;;;;;;;13.38;85.43;100681.88;1768810;79;25922;-66
2021/10/06 06:45:50;;;;;;;45.25;23.73;;;;;;;13.42;85.46;100682.09;1778270;79;25820;-65
2021/10/06 06:48:16;;;;;;;35.43;20.80;;;;;;;13.45;85.54;100681.45;1750256;79;25736;-65
2021/10/06 06:50:43;;;;;;;41.08;21.87;;;;;;;13.51;85.50;100681.59;1767879;79;27738;-65
2021/10/06 06:53:08;;;;;;;36.08;22.13;;;;;;;13.53;85.52;100694.50;1766807;79;27156;-65
2021/10/06 06:55:34;;;;;;;41.05;21.23;;;;;;;13.57;85.63;100694.25;1767948;80;26959;-66
2021/10/06 06:58:00;;;;;;;39.38;21.90;;;;;;;13.62;85.56;100693.99;1770266;79;25950;-65
2021/10/06 07:00:26;;;;;;;35.33;21.35;;;;;;;13.62;85.49;100696.69;1766295;79;25725;-67
2021/10/06 07:02:52;;;;;;;35.90;20.75;;;;;;;13.65;85.53;100701.91;1769221;79;28002;-67
2021/10/06 07:05:18;;;;;;;38.30;21.85;;;;;;;13.67;85.64;100698.65;1759084;79;25726;-67
2021/10/06 07:07:47;;;;;;;48.90;25.50;;;;;;;13.76;85.67;100712.95;1760691;79;25888;-65
2021/10/06 07:10:12;;;;;;;41.05;22.22;;;;;;;13.82;85.77;100718.48;1758074;79;26772;-65
2021/10/06 07:12:38;;;;;;;35.73;20.05;;;;;;;13.86;85.65;100723.62;1758032;79;25836;-64
2021/10/06 07:15:06;;;;;;;37.15;21.85;;;;;;;13.88;85.72;100723.05;1769535;79;27453;-65
2021/10/06 07:17:31;;;;;;;35.20;21.20;;;;;;;13.92;85.72;100717.88;1762333;79;25852;-65
2021/10/06 07:19:57;;;;;;;77.50;38.48;;;;;;;13.94;85.79;100724.06;1778913;79;25762;-65
2021/10/06 07:22:24;;;;;;;53.55;29.15;;;;;;;13.96;85.73;100728.89;1749205;80;26110;-65
2021/10/06 07:24:50;;;;;;;40.85;22.70;;;;;;;13.93;85.67;100727.70;1735346;80;25800;-67
2021/10/06 07:27:15;;;;;;;33.98;19.50;;;;;;;13.91;85.66;100727.41;1740568;80;28186;-67
2021/10/06 07:29:42;;;;;;;32.17;20.00;;;;;;;13.93;85.70;100731.75;1737767;80;26282;-66
2021/10/06 07:32:08;;;;;;;31.30;19.32;;;;;;;13.94;85.73;100736.66;1748799;80;25817;-64
2021/10/06 07:34:34;;;;;;;49.25;25.05;;;;;;;13.96;85.73;100742.36;1752981;80;26449;-66
2021/10/06 07:37:00;;;;;;;31.37;18.57;;;;;;;13.94;85.75;100752.35;1742278;80;25874;-66
2021/10/06 07:39:26;;;;;;;29.45;18.02;;;;;;;13.95;85.76;100754.57;1748176;80;27380;-65
2021/10/06 07:41:51;;;;;;;36.55;22.32;;;;;;;13.97;85.78;100750.83;1755793;80;26486;-66
2021/10/06 07:44:18;;;;;;;31.25;18.32;;;;;;;14.00;85.79;100751.63;1741876;80;25846;-67
2021/10/06 07:46:44;;;;;;;27.60;18.92;;;;;;;14.01;85.78;100750.19;1747729;79;25992;-67
2021/10/06 07:49:11;;;;;;;34.08;18.32;;;;;;;14.03;85.85;100759.53;1739344;80;25819;-66
2021/10/06 07:51:38;;;;;;;31.80;17.92;;;;;;;14.06;85.87;100763.41;1746620;80;27441;-66
2021/10/06 07:54:05;;;;;;;25.77;17.92;;;;;;;14.08;85.86;100762.36;1749871;79;26514;-67
2021/10/06 07:56:31;;;;;;;26.37;16.42;;;;;;;14.15;85.94;100761.06;1735921;80;25893;-67
2021/10/06 07:58:56;;;;;;;32.90;18.75;;;;;;;14.18;85.91;100761.38;1737443;80;26460;-67
2021/10/06 08:01:22;;;;;;;29.72;16.82;;;;;;;14.18;85.87;100764.06;1745965;80;25682;-67
2021/10/06 08:03:48;;;;;;;24.50;16.87;;;;;;;14.23;85.88;100766.02;1734598;80;27375;-67
2021/10/06 08:06:14;;;;;;;25.00;16.65;;;;;;;14.29;86.01;100773.77;1746558;80;25883;-67
2021/10/06 08:08:40;;;;;;;27.25;15.70;;;;;;;14.33;85.87;100772.64;1734515;80;26083;-67
2021/10/06 08:11:06;;;;;;;30.50;18.60;;;;;;;14.38;85.97;100775.94;1735517;80;26519;-67
2021/10/06 08:13:32;;;;;;;26.97;16.70;;;;;;;14.42;85.96;100776.19;1739953;80;25814;-67
2021/10/06 08:15:58;;;;;;;32.58;17.40;;;;;;;14.46;85.92;100778.23;1730136;80;27718;-67
2021/10/06 08:18:25;;;;;;;25.17;17.27;;;;;;;14.44;85.82;100779.67;1736456;80;25775;-67
2021/10/06 08:20:53;;;;;;;27.13;18.48;;;;;;;14.49;85.97;100784.33;1738440;80;26115;-66
2021/10/06 08:23:20;;;;;;;25.72;16.97;;;;;;;14.51;85.92;100785.11;1766274;80;26344;-64
2021/10/06 08:25:50;;;;;;;24.98;17.27;;;;;;;14.50;85.74;100783.36;1764159;80;25878;-64
2021/10/06 08:28:19;;;;;;;24.32;16.27;;;;;;;14.52;85.93;100782.80;1770904;80;27504;-67
2021/10/06 08:30:47;;;;;;;26.05;16.57;;;;;;;14.59;85.96;100785.53;1767987;80;25784;-66
2021/10/06 08:33:13;;;;;;;24.85;15.15;;;;;;;14.64;86.00;100785.75;1767572;80;25743;-64
2021/10/06 08:35:39;;;;;;;22.22;15.38;;;;;;;14.63;85.74;100784.01;1772309;80;26499;-64
2021/10/06 08:38:07;;;;;;;24.55;14.95;;;;;;;14.60;85.83;100799.41;1769456;80;25770;-63
2021/10/06 08:40:36;;;;;;;22.82;14.98;;;;;;;14.66;85.96;100805.41;1763339;80;28070;-64
2021/10/06 08:43:06;;;;;;;22.35;14.33;;;;;;;14.68;85.87;100802.15;1780320;80;25808;-64
2021/10/06 08:45:32;;;;;;;26.42;15.43;;;;;;;14.69;85.84;100805.23;1763697;80;26161;-64
2021/10/06 08:48:05;;;;;;;22.67;15.95;;;;;;;14.72;85.95;100803.23;1770674;80;26369;-64
2021/10/06 08:50:31;;;;;;;26.75;16.48;;;;;;;14.80;86.07;100806.83;1762218;80;25845;-67
2021/10/06 08:52:58;;;;;;;28.23;16.55;;;;;;;14.84;85.96;100801.17;1770131;80;28392;-66
2021/10/06 08:55:29;;;;;;;21.95;14.53;;;;;;;14.91;86.03;100803.03;1756084;80;26706;-66
2021/10/06 08:58:01;;;;;;;26.97;15.70;;;;;;;14.93;85.87;100800.63;1748917;80;25635;-67
2021/10/06 09:00:29;;;;;;;25.55;15.28;;;;;;;14.94;85.77;100806.89;1773561;80;26548;-66
2021/10/06 09:02:55;;;;;;;23.25;14.83;;;;;;;14.94;85.72;100806.89;1770590;80;25868;-67
2021/10/06 09:05:23;;;;;;;23.65;15.90;;;;;;;14.93;85.71;100806.02;1762660;80;27483;-67
2021/10/06 09:08:04;;;;;;;19.57;15.32;;;;;;;14.95;85.82;100808.63;1752674;80;25908;-67
2021/10/06 09:10:32;;;;;;;;;;;;;;;14.93;85.68;100811.42;1754795;80;25857;-65
2021/10/06 09:13:05;;;;;;;28.73;16.65;;;;;;;14.88;85.63;100815.35;1742509;81;26485;-64
2021/10/06 09:15:44;;;;;;;21.40;15.80;;;;;;;14.86;85.76;100811.88;1763017;80;25523;-66
2021/10/06 09:18:13;;;;;;;25.77;16.85;;;;;;;14.89;85.71;100811.69;1764041;80;28095;-68
2021/10/06 09:20:39;;;;;;;23.92;16.27;;;;;;;14.88;85.67;100812.66;1755850;80;25846;-68
2021/10/06 09:23:10;;;;;;;21.25;16.55;;;;;;;14.97;85.75;100816.64;1784435;79;26061;-70
2021/10/06 09:25:58;;;;;;;23.80;17.67;;;;;;;15.06;85.69;100822.37;1783926;79;26348;-70
2021/10/06 09:28:33;;;;;;;22.48;16.67;;;;;;;15.11;85.61;100824.31;1758114;79;25810;-70
2021/10/06 09:31:04;;;;;;;30.75;17.42;;;;;;;15.17;85.63;100825.30;1751945;79;28031;-68
2021/10/06 09:33:47;;;;;;;28.98;16.00;;;;;;;15.21;85.57;100825.51;1787735;79;26238;-69
2021/10/06 09:36:29;;;;;;;22.80;16.12;;;;;;;15.29;85.58;100828.23;1763968;79;26419;-67
2021/10/06 09:39:03;;;;;;;;;;;;;;;15.29;85.41;100837.20;1772735;79;26008;-67
2021/10/06 09:41:37;;;;;;;20.43;15.10;;;;;;;15.31;85.44;100830.36;1774656;79;25750;-67
2021/10/06 09:44:08;;;;;;;25.02;15.65;;;;;;;15.32;85.43;100838.38;1776946;79;28061;-69
2021/10/06 09:46:56;;;;;;;21.12;16.25;;;;;;;15.38;85.46;100840.70;1763690;79;26496;-67
2021/10/06 09:49:36;;;;;;;19.52;15.28;;;;;;;15.39;85.32;100837.04;1772941;79;37195;-67
2021/10/06 09:52:31;;;;;;;21.85;15.18;;;;;;;15.49;85.42;100846.33;1770951;79;26323;-68
2021/10/06 09:55:07;;;;;;;20.15;14.87;;;;;;;15.55;85.32;100845.95;1762038;79;26419;-67
2021/10/06 09:57:40;;;;;;;18.05;14.95;;;;;;;15.54;85.22;100852.80;1763987;79;28178;-66
2021/10/06 10:00:11;;;;;;;19.17;13.90;;;;;;;15.53;85.21;100857.34;1775133;79;25763;-66
2021/10/06 10:02:37;;;;;;;18.42;13.65;;;;;;;15.47;85.06;100860.89;1770169;79;25805;-67
2021/10/06 10:05:07;;;;;;;24.37;19.82;;;;;;;15.39;84.91;100870.80;1774660;79;26557;-67
2021/10/06 10:07:33;;;;;;;23.90;20.08;;;;;;;15.35;85.07;100873.78;1768682;79;25869;-67
2021/10/06 10:09:59;;;;;;;15.55;12.03;;;;;;;15.32;84.99;100875.31;1767666;79;27424;-67
2021/10/06 10:12:28;;;;;;;14.60;11.12;;;;;;;15.24;84.86;100875.28;1769732;79;26371;-67
2021/10/06 10:14:55;;;;;;;16.20;11.95;;;;;;;15.19;84.84;100881.44;1776243;79;26550;-68
2021/10/06 10:17:22;;;;;;;15.38;11.90;;;;;;;15.14;84.87;100884.89;1768764;79;26350;-69
2021/10/06 10:19:56;;;;;;;12.30;11.00;;;;;;;15.10;84.74;100881.11;1779727;79;25730;-68
2021/10/06 10:22:28;;;;;;;14.85;11.28;;;;;;;15.10;84.73;100886.02;1763035;79;27319;-68
2021/10/06 10:24:54;;;;;;;14.23;12.73;;;;;;;15.13;84.68;100898.47;1704055;82;25833;-67
2021/10/06 10:27:22;;;;;;;20.57;15.20;;;;;;;15.10;84.46;100906.27;1735488;81;25924;-67
2021/10/06 10:30:05;;;;;;;15.85;12.70;;;;;;;15.09;84.55;100912.63;1726027;81;26061;-65
2021/10/06 10:32:46;;;;;;;13.60;11.30;;;;;;;15.09;84.53;100909.06;1726782;81;25714;-65
2021/10/06 10:35:20;;;;;;;16.97;13.65;;;;;;;15.05;84.38;100918.30;1743158;81;27451;-66
2021/10/06 10:37:54;;;;;;;29.20;22.22;;;;;;;15.03;84.21;100923.78;1729646;81;25998;-64
2021/10/06 10:40:42;;;;;;;31.68;24.25;;;;;;;15.01;84.14;100926.17;1733921;81;25841;-64
2021/10/06 10:43:24;;;;;;;37.98;29.60;;;;;;;14.98;84.21;100929.05;1731912;81;26442;-67
2021/10/06 10:46:07;;;;;;;54.38;48.42;;;;;;;14.96;84.20;100922.39;1715433;81;25689;-67
2021/10/06 10:49:01;;;;;;;51.42;41.90;;;;;;;14.98;84.17;100928.58;1698989;82;27539;-68
2021/10/06 10:51:48;;;;;;;48.08;40.98;;;;;;;15.01;84.14;100937.84;1702501;82;26470;-67
2021/10/06 10:54:42;;;;;;;44.95;37.25;;;;;;;15.04;84.12;100933.62;1705900;82;25774;-67
2021/10/06 10:57:25;;;;;;;37.48;26.40;;;;;;;15.10;84.15;100937.32;1668930;82;26073;-67
2021/10/06 10:59:56;;;;;;;26.52;17.05;;;;;;;15.13;84.09;100945.72;1696202;82;25758;-68
2021/10/06 11:02:32;;;;;;;20.05;14.98;;;;;;;15.21;84.19;100951.08;1692958;82;27380;-66
2021/10/06 11:05:08;;;;;;;17.92;14.40;;;;;;;15.31;84.18;100951.89;1696799;82;26297;-66
2021/10/06 11:07:52;;;;;;;16.65;14.58;;;;;;;15.37;84.02;100948.84;1689939;82;25829;-66
2021/10/06 11:10:26;;;;;;;15.32;13.62;;;;;;;15.36;83.86;100946.61;1728729;81;26030;-69
2021/10/06 11:13:03;;;;;;;16.82;13.22;;;;;;;15.38;83.92;100947.39;1725218;81;25887;-68
2021/10/06 11:15:26;;;;;;;15.60;13.58;;;;;;;15.42;83.93;100949.44;1729746;81;26801;-66